createdAt,value
2018-07-28T00:02:21.568Z,8.03
2018-07-28T00:04:49.243Z,7.75
2018-07-28T00:07:16.837Z,7.67
2018-07-28T00:09:44.800Z,6.80
2018-07-28T00:12:12.392Z,6.65
2018-07-28T00:14:40.077Z,6.45
2018-07-28T00:17:07.670Z,5.80
2018-07-28T00:19:35.279Z,6.20
2018-07-28T00:22:09.664Z,6.12
2018-07-28T00:24:37.349Z,6.30
2018-07-28T00:27:05.184Z,6.55
2018-07-28T00:29:33.104Z,6.30
2018-07-28T00:32:00.755Z,6.40
2018-07-28T00:34:28.853Z,6.97
2018-07-28T00:36:56.355Z,6.40
2018-07-28T00:39:24.066Z,6.37
2018-07-28T00:41:51.663Z,6.62
2018-07-28T00:44:19.325Z,6.75
2018-07-28T00:46:46.935Z,6.80
2018-07-28T00:49:14.819Z,6.25
2018-07-28T00:51:42.426Z,6.30
2018-07-28T00:54:10.060Z,6.22
2018-07-28T00:56:37.918Z,5.90
2018-07-28T00:59:05.598Z,5.80
2018-07-28T01:01:33.144Z,5.90
2018-07-28T01:04:00.748Z,6.33
2018-07-28T01:06:28.429Z,6.55
2018-07-28T01:08:55.974Z,6.62
2018-07-28T01:11:23.598Z,6.55
2018-07-28T01:13:51.565Z,6.22
2018-07-28T01:16:19.195Z,6.20
2018-07-28T01:18:46.755Z,5.37
2018-07-28T01:21:14.362Z,5.53
2018-07-28T01:23:41.924Z,5.47
2018-07-28T01:26:09.584Z,5.78
2018-07-28T01:28:37.370Z,5.53
2018-07-28T01:31:05.047Z,5.10
2018-07-28T01:33:32.722Z,4.50
2018-07-28T01:36:00.354Z,5.12
2018-07-28T01:38:27.965Z,5.60
2018-07-28T01:40:55.903Z,5.28
2018-07-28T01:43:23.513Z,5.60
2018-07-28T01:45:51.428Z,5.08
2018-07-28T01:48:19.008Z,6.10
2018-07-28T01:50:46.620Z,5.40
2018-07-28T01:53:14.203Z,5.50
2018-07-28T01:55:42.178Z,5.62
2018-07-28T01:58:09.630Z,5.30
2018-07-28T02:00:37.321Z,5.97
2018-07-28T02:03:05.117Z,5.80
2018-07-28T02:05:32.708Z,5.95
2018-07-28T02:08:00.255Z,5.92
2018-07-28T02:10:28.001Z,5.72
2018-07-28T02:12:55.644Z,6.10
2018-07-28T02:15:23.288Z,6.42
2018-07-28T02:17:50.873Z,5.97
2018-07-28T02:20:18.527Z,6.05
2018-07-28T02:22:46.243Z,6.30
2018-07-28T02:25:13.818Z,5.78
2018-07-28T02:27:41.408Z,6.50
2018-07-28T02:30:09.101Z,5.50
2018-07-28T02:32:36.840Z,5.17
2018-07-28T02:35:05.145Z,5.37
2018-07-28T02:37:32.725Z,5.78
2018-07-28T02:40:00.360Z,5.03
2018-07-28T02:42:28.017Z,5.25
2018-07-28T02:44:55.572Z,5.60
2018-07-28T02:47:23.148Z,6.30
2018-07-28T02:49:50.854Z,6.60
2018-07-28T02:52:18.436Z,5.65
2018-07-28T02:54:46.028Z,7.05
2018-07-28T02:57:13.678Z,6.15
2018-07-28T02:59:41.248Z,7.90
2018-07-28T03:02:09.233Z,6.33
2018-07-28T03:04:36.802Z,7.10
2018-07-28T03:07:04.959Z,6.70
2018-07-28T03:09:32.519Z,7.25
2018-07-28T03:12:00.164Z,6.17
2018-07-28T03:14:27.819Z,6.03
2018-07-28T03:16:55.504Z,6.47
2018-07-28T03:19:23.099Z,6.45
2018-07-28T03:21:50.760Z,7.17
2018-07-28T03:24:18.333Z,6.85
2018-07-28T03:26:45.971Z,6.70
2018-07-28T03:29:13.805Z,5.87
2018-07-28T03:31:41.383Z,5.92
2018-07-28T03:34:09.028Z,5.50
2018-07-28T03:36:36.860Z,4.70
2018-07-28T03:39:06.949Z,5.60
2018-07-28T03:41:34.643Z,6.72
2018-07-28T03:44:02.547Z,6.40
2018-07-28T03:46:30.314Z,6.97
2018-07-28T03:48:57.907Z,7.42
2018-07-28T03:51:25.579Z,7.03
2018-07-28T03:53:53.433Z,7.60
2018-07-28T03:56:21.119Z,7.75
2018-07-28T03:58:48.686Z,6.50
2018-07-28T04:01:16.331Z,7.17
2018-07-28T04:03:43.868Z,6.42
2018-07-28T04:06:11.435Z,5.80
2018-07-28T04:08:39.090Z,5.90
2018-07-28T04:11:06.776Z,5.95
2018-07-28T04:13:34.322Z,6.08
2018-07-28T04:16:01.929Z,6.05
2018-07-28T04:18:29.587Z,5.70
2018-07-28T04:20:57.180Z,6.47
2018-07-28T04:23:24.822Z,6.53
2018-07-28T04:25:52.396Z,6.03
2018-07-28T04:28:20.012Z,6.15
2018-07-28T04:30:47.568Z,6.75
2018-07-28T04:33:15.180Z,7.45
2018-07-28T04:35:42.965Z,6.15
2018-07-28T04:38:10.612Z,7.50
2018-07-28T04:40:38.192Z,8.00
2018-07-28T04:43:05.804Z,7.65
2018-07-28T04:45:33.488Z,9.58
2018-07-28T04:48:01.073Z,9.48
2018-07-28T04:50:28.694Z,9.40
2018-07-28T04:52:56.264Z,7.95
2018-07-28T04:55:23.816Z,6.67
2018-07-28T04:57:51.385Z,6.25
2018-07-28T05:00:18.968Z,6.00
2018-07-28T05:02:46.572Z,5.30
2018-07-28T05:05:14.262Z,4.95
2018-07-28T05:07:42.065Z,4.87
2018-07-28T05:10:09.546Z,4.90
2018-07-28T05:12:37.155Z,4.35
2018-07-28T05:15:05.921Z,4.55
2018-07-28T05:17:33.609Z,4.37
2018-07-28T05:20:01.261Z,5.80
2018-07-28T05:22:28.954Z,7.87
2018-07-28T05:24:56.548Z,7.00
2018-07-28T05:27:24.177Z,6.83
2018-07-28T05:29:51.761Z,7.15
2018-07-28T05:32:19.632Z,7.17
2018-07-28T05:34:47.215Z,7.03
2018-07-28T05:37:14.888Z,5.95
2018-07-28T05:39:42.698Z,5.03
2018-07-28T05:42:10.204Z,5.22
2018-07-28T05:44:37.752Z,6.20
2018-07-28T05:47:05.531Z,5.58
2018-07-28T05:49:33.131Z,5.20
2018-07-28T05:52:00.698Z,5.58
2018-07-28T05:54:28.218Z,6.45
2018-07-28T05:56:56.091Z,8.90
2018-07-28T05:59:23.779Z,10.40
2018-07-28T06:01:51.479Z,10.88
2018-07-28T06:04:19.373Z,9.60
2018-07-28T06:06:47.075Z,8.33
2018-07-28T06:09:14.684Z,6.83
2018-07-28T06:11:42.334Z,8.05
2018-07-28T06:14:09.948Z,7.78
2018-07-28T06:16:37.584Z,6.75
2018-07-28T06:19:05.168Z,7.62
2018-07-28T06:21:32.661Z,8.28
2018-07-28T06:24:00.228Z,7.58
2018-07-28T06:26:27.832Z,7.40
2018-07-28T06:28:55.514Z,9.70
2018-07-28T06:31:23.462Z,9.88
2018-07-28T06:33:51.900Z,9.18
2018-07-28T06:36:19.800Z,10.60
2018-07-28T06:38:47.541Z,9.10
2018-07-28T06:41:15.239Z,10.75
2018-07-28T06:43:43.553Z,9.50
2018-07-28T06:46:11.440Z,9.83
2018-07-28T06:48:39.976Z,9.25
2018-07-28T06:51:07.668Z,9.50
2018-07-28T06:53:35.454Z,8.80
2018-07-28T06:56:04.786Z,8.83
2018-07-28T06:58:32.454Z,8.63
2018-07-28T07:01:00.184Z,7.87
2018-07-28T07:03:28.319Z,6.80
2018-07-28T07:05:56.032Z,6.95
2018-07-28T07:08:23.688Z,5.80
2018-07-28T07:10:51.464Z,6.60
2018-07-28T07:13:19.175Z,7.15
2018-07-28T07:15:47.065Z,8.48
2018-07-28T07:18:14.847Z,9.43
2018-07-28T07:20:42.622Z,10.45
2018-07-28T07:23:10.227Z,8.75
2018-07-28T07:25:39.923Z,7.80
2018-07-28T07:28:07.866Z,8.60
2018-07-28T07:30:35.463Z,7.47
2018-07-28T07:33:03.636Z,7.55
2018-07-28T07:35:31.252Z,7.12
2018-07-28T07:37:59.635Z,7.05
2018-07-28T07:40:27.511Z,6.35
2018-07-28T07:42:56.748Z,6.75
2018-07-28T07:45:24.458Z,6.17
2018-07-28T07:47:52.317Z,5.67
2018-07-28T07:50:20.308Z,5.75
2018-07-28T07:52:48.332Z,7.05
2018-07-28T07:55:16.261Z,6.87
2018-07-28T07:57:45.315Z,7.78
2018-07-28T08:00:13.208Z,6.60
2018-07-28T08:02:40.845Z,5.80
2018-07-28T08:05:08.525Z,5.10
2018-07-28T08:07:36.208Z,4.72
2018-07-28T08:10:04.465Z,4.55
2018-07-28T08:12:32.131Z,4.12
2018-07-28T08:15:00.175Z,3.92
2018-07-28T08:17:27.812Z,3.80
2018-07-28T08:19:55.492Z,4.12
2018-07-28T08:22:23.287Z,6.50
2018-07-28T08:24:51.096Z,11.85
2018-07-28T08:27:18.765Z,13.62
2018-07-28T08:29:47.803Z,13.70
2018-07-28T08:32:15.486Z,13.55
2018-07-28T08:34:43.196Z,14.45
2018-07-28T08:37:10.940Z,12.35
2018-07-28T08:39:38.725Z,11.65
2018-07-28T08:42:06.396Z,11.68
2018-07-28T08:44:34.089Z,12.37
2018-07-28T08:47:01.729Z,11.85
2018-07-28T08:49:29.710Z,12.05
2018-07-28T08:51:57.516Z,12.07
2018-07-28T08:54:25.299Z,11.57
2018-07-28T08:56:52.926Z,11.90
2018-07-28T08:59:20.521Z,11.20
2018-07-28T09:01:48.388Z,11.20
2018-07-28T09:04:16.871Z,11.03
2018-07-28T09:06:44.782Z,11.25
2018-07-28T09:09:12.478Z,10.50
2018-07-28T09:11:40.180Z,10.35
2018-07-28T09:14:08.564Z,10.55
2018-07-28T09:16:36.196Z,9.58
2018-07-28T09:19:03.846Z,10.68
2018-07-28T09:21:31.731Z,10.03
2018-07-28T09:23:59.384Z,10.43
2018-07-28T09:26:27.034Z,9.08
2018-07-28T09:28:54.711Z,9.05
2018-07-28T09:31:22.247Z,8.88
2018-07-28T09:33:49.944Z,9.10
2018-07-28T09:36:17.613Z,9.50
2018-07-28T09:38:45.466Z,9.10
2018-07-28T09:41:13.126Z,9.10
2018-07-28T09:43:41.002Z,8.53
2018-07-28T09:46:09.092Z,8.35
2018-07-28T09:48:37.687Z,9.45
2018-07-28T09:51:05.467Z,7.95
2018-07-28T09:53:33.819Z,7.33
2018-07-28T09:56:01.405Z,7.87
2018-07-28T09:58:29.627Z,7.62
2018-07-28T10:01:03.082Z,7.65
2018-07-28T10:03:30.803Z,6.75
2018-07-28T10:05:58.511Z,6.87
2018-07-28T10:08:26.162Z,6.58
2018-07-28T10:10:53.869Z,6.83
2018-07-28T10:13:21.644Z,6.15
2018-07-28T10:15:49.524Z,7.10
2018-07-28T10:18:17.216Z,6.97
2018-07-28T10:20:45.333Z,6.20
2018-07-28T10:23:13.114Z,6.08
2018-07-28T10:25:40.901Z,5.78
2018-07-28T10:28:09.135Z,6.08
2018-07-28T10:30:36.912Z,5.20
2018-07-28T10:33:04.553Z,5.60
2018-07-28T10:35:32.194Z,5.45
2018-07-28T10:37:59.828Z,5.75
2018-07-28T10:40:28.017Z,5.30
2018-07-28T10:42:55.623Z,5.50
2018-07-28T10:45:23.216Z,6.00
2018-07-28T10:47:50.991Z,6.25
2018-07-28T10:50:18.663Z,6.08
2018-07-28T10:52:46.316Z,5.83
2018-07-28T10:55:13.912Z,6.70
2018-07-28T10:57:41.495Z,6.78
2018-07-28T11:00:09.265Z,6.03
2018-07-28T11:02:36.866Z,6.70
2018-07-28T11:05:05.350Z,6.60
2018-07-28T11:07:32.979Z,6.40
2018-07-28T11:10:00.668Z,6.30
2018-07-28T11:12:28.370Z,5.90
2018-07-28T11:14:56.642Z,6.22
2018-07-28T11:17:24.446Z,6.95
2018-07-28T11:19:52.248Z,6.30
2018-07-28T11:22:20.035Z,6.40
2018-07-28T11:24:47.766Z,7.12
2018-07-28T11:27:16.744Z,6.75
2018-07-28T11:29:44.694Z,7.10
2018-07-28T11:32:23.766Z,7.60
2018-07-28T11:35:02.858Z,7.03
2018-07-28T11:37:41.836Z,7.10
2018-07-28T11:40:20.784Z,6.62
2018-07-28T11:42:59.895Z,6.45
2018-07-28T11:45:27.817Z,6.67
2018-07-28T11:47:55.432Z,7.45
2018-07-28T11:50:23.175Z,7.17
2018-07-28T11:52:50.762Z,7.83
2018-07-28T11:55:18.409Z,6.83
2018-07-28T11:57:46.212Z,7.03
2018-07-28T12:00:13.805Z,7.00
2018-07-28T12:02:41.421Z,6.87
2018-07-28T12:05:09.153Z,6.70
2018-07-28T12:07:37.727Z,6.47
2018-07-28T12:10:06.844Z,7.10
2018-07-28T12:12:35.232Z,6.78
2018-07-28T12:15:02.812Z,7.05
2018-07-28T12:17:30.403Z,6.90
2018-07-28T12:19:58.343Z,7.92
2018-07-28T12:22:26.054Z,7.00
2018-07-28T12:24:54.020Z,8.03
2018-07-28T12:27:21.636Z,7.35
2018-07-28T12:29:49.199Z,7.28
2018-07-28T12:32:17.052Z,6.90
2018-07-28T12:34:44.690Z,7.65
2018-07-28T12:37:12.256Z,7.00
2018-07-28T12:39:39.896Z,7.28
2018-07-28T12:42:07.704Z,7.00
2018-07-28T12:44:35.373Z,6.42
2018-07-28T12:47:03.076Z,6.33
2018-07-28T12:49:31.278Z,7.37
2018-07-28T12:51:59.337Z,7.47
2018-07-28T12:54:27.187Z,6.67
2018-07-28T12:56:55.045Z,6.35
2018-07-28T12:59:23.401Z,7.10
2018-07-28T13:01:51.156Z,7.05
2018-07-28T13:04:18.801Z,7.20
2018-07-28T13:06:46.643Z,7.85
2018-07-28T13:09:14.404Z,6.33
2018-07-28T13:11:42.436Z,6.15
2018-07-28T13:14:10.109Z,6.78
2018-07-28T13:16:37.759Z,7.08
2018-07-28T13:19:05.526Z,7.17
2018-07-28T13:21:33.122Z,7.22
2018-07-28T13:24:00.851Z,7.50
2018-07-28T13:26:28.314Z,7.37
2018-07-28T13:28:56.009Z,7.37
2018-07-28T13:31:23.878Z,8.05
2018-07-28T13:33:51.656Z,7.83
2018-07-28T13:36:19.882Z,8.03
2018-07-28T13:38:47.572Z,8.18
2018-07-28T13:41:15.241Z,7.60
2018-07-28T13:43:42.895Z,8.03
2018-07-28T13:46:10.613Z,8.20
2018-07-28T13:48:38.274Z,8.53
2018-07-28T13:51:06.766Z,8.23
2018-07-28T13:53:34.631Z,7.72
2018-07-28T13:56:02.213Z,8.63
2018-07-28T13:58:29.896Z,7.65
2018-07-28T14:00:57.494Z,7.05
2018-07-28T14:03:25.789Z,8.13
2018-07-28T14:05:53.556Z,7.85
2018-07-28T14:08:21.135Z,7.03
2018-07-28T14:10:48.721Z,7.00
2018-07-28T14:13:16.896Z,7.60
2018-07-28T14:15:44.645Z,7.60
2018-07-28T14:18:12.764Z,8.18
2018-07-28T14:20:40.877Z,7.75
2018-07-28T14:23:08.514Z,7.92
2018-07-28T14:25:36.335Z,7.35
2018-07-28T14:28:04.532Z,7.58
2018-07-28T14:30:32.181Z,7.62
2018-07-28T14:32:59.812Z,7.20
2018-07-28T14:35:28.040Z,8.35
2018-07-28T14:37:55.632Z,7.37
2018-07-28T14:40:25.500Z,8.55
2018-07-28T14:42:53.108Z,8.88
2018-07-28T14:45:20.679Z,8.75
2018-07-28T14:47:48.242Z,8.78
2018-07-28T14:50:15.864Z,9.20
2018-07-28T14:52:43.468Z,9.05
2018-07-28T14:55:11.301Z,9.65
2018-07-28T14:57:38.870Z,9.55
2018-07-28T15:00:07.371Z,9.13
2018-07-28T15:02:35.271Z,8.58
2018-07-28T15:05:02.996Z,9.10
2018-07-28T15:07:30.622Z,9.43
2018-07-28T15:09:58.307Z,10.43
2018-07-28T15:12:25.964Z,9.40
2018-07-28T15:14:53.861Z,9.70
2018-07-28T15:17:21.479Z,8.60
2018-07-28T15:19:49.414Z,9.20
2018-07-28T15:22:17.365Z,9.10
2018-07-28T15:24:44.869Z,9.45
2018-07-28T15:27:12.609Z,9.35
2018-07-28T15:29:40.272Z,10.00
2018-07-28T15:32:08.015Z,9.00
2018-07-28T15:34:35.768Z,9.70
2018-07-28T15:37:03.450Z,9.75
2018-07-28T15:39:31.070Z,9.50
2018-07-28T15:41:58.967Z,9.20
2018-07-28T15:44:26.542Z,10.00
2018-07-28T15:46:54.123Z,9.80
2018-07-28T15:49:21.780Z,9.28
2018-07-28T15:51:49.351Z,9.55
2018-07-28T15:54:16.974Z,10.05
2018-07-28T15:56:44.551Z,9.25
2018-07-28T15:59:12.115Z,9.50
2018-07-28T16:01:40.020Z,9.08
2018-07-28T16:04:07.624Z,8.90
2018-07-28T16:06:35.205Z,9.95
2018-07-28T16:09:03.033Z,9.40
2018-07-28T16:11:30.648Z,8.68
2018-07-28T16:13:58.656Z,10.70
2018-07-28T16:16:26.195Z,9.73
2018-07-28T16:18:53.864Z,10.70
2018-07-28T16:21:21.492Z,10.95
2018-07-28T16:23:49.255Z,10.43
2018-07-28T16:26:17.098Z,9.55
2018-07-28T16:28:44.741Z,10.25
2018-07-28T16:31:12.306Z,10.35
2018-07-28T16:33:40.200Z,10.03
2018-07-28T16:36:07.953Z,10.32
2018-07-28T16:38:35.729Z,10.00
2018-07-28T16:41:03.352Z,8.88
2018-07-28T16:43:31.105Z,11.03
2018-07-28T16:45:58.855Z,10.75
2018-07-28T16:48:26.722Z,9.25
2018-07-28T16:50:54.585Z,7.75
2018-07-28T16:53:22.181Z,8.25
2018-07-28T16:55:49.918Z,7.92
2018-07-28T16:58:17.696Z,8.20
2018-07-28T17:00:45.330Z,8.03
2018-07-28T17:03:12.909Z,9.28
2018-07-28T17:05:40.780Z,9.90
2018-07-28T17:08:08.409Z,9.55
2018-07-28T17:10:35.984Z,10.05
2018-07-28T17:13:03.812Z,9.63
2018-07-28T17:15:31.399Z,9.63
2018-07-28T17:17:59.006Z,9.30
2018-07-28T17:20:26.935Z,10.80
2018-07-28T17:22:54.695Z,9.55
2018-07-28T17:25:22.241Z,9.68
2018-07-28T17:27:50.999Z,8.95
2018-07-28T17:30:19.567Z,9.10
2018-07-28T17:32:47.187Z,9.40
2018-07-28T17:35:14.695Z,9.13
2018-07-28T17:37:42.539Z,8.53
2018-07-28T17:40:10.124Z,11.18
2018-07-28T17:42:38.031Z,12.25
2018-07-28T17:45:06.304Z,11.90
2018-07-28T17:47:34.160Z,10.70
2018-07-28T17:50:02.121Z,9.65
2018-07-28T17:52:29.726Z,9.80
2018-07-28T17:54:57.460Z,9.23
2018-07-28T17:57:25.129Z,9.53
2018-07-28T17:59:52.892Z,9.58
2018-07-28T18:02:20.597Z,11.12
2018-07-28T18:04:48.231Z,10.63
2018-07-28T18:07:15.817Z,10.20
2018-07-28T18:09:43.504Z,10.78
2018-07-28T18:12:11.175Z,10.38
2018-07-28T18:14:38.923Z,11.12
2018-07-28T18:17:06.936Z,11.12
2018-07-28T18:19:34.592Z,10.20
2018-07-28T18:22:02.349Z,8.33
2018-07-28T18:24:29.968Z,8.70
2018-07-28T18:26:57.547Z,8.68
2018-07-28T18:29:25.425Z,9.23
2018-07-28T18:31:53.056Z,8.80
2018-07-28T18:34:20.689Z,8.73
2018-07-28T18:36:48.474Z,8.95
2018-07-28T18:39:16.107Z,10.63
2018-07-28T18:41:43.715Z,10.58
2018-07-28T18:44:11.399Z,9.23
2018-07-28T18:46:38.882Z,8.18
2018-07-28T18:49:06.476Z,7.33
2018-07-28T18:51:34.179Z,7.45
2018-07-28T18:54:01.693Z,7.53
2018-07-28T18:56:29.454Z,8.13
2018-07-28T18:58:57.102Z,8.35
2018-07-28T19:01:24.732Z,7.87
2018-07-28T19:03:52.284Z,8.58
2018-07-28T19:06:19.795Z,8.88
2018-07-28T19:08:53.043Z,7.90
2018-07-28T19:11:20.904Z,7.10
2018-07-28T19:13:54.073Z,7.95
2018-07-28T19:16:21.860Z,7.60
2018-07-28T19:18:55.020Z,7.25
2018-07-28T19:21:22.701Z,7.83
2018-07-28T19:23:56.098Z,7.45
2018-07-28T19:26:23.699Z,6.62
2018-07-28T19:28:57.270Z,7.03
2018-07-28T19:31:24.887Z,7.72
2018-07-28T19:33:52.824Z,7.97
2018-07-28T19:36:26.128Z,7.45
2018-07-28T19:38:53.713Z,8.23
2018-07-28T19:41:21.267Z,6.65
2018-07-28T19:43:49.048Z,6.30
2018-07-28T19:46:16.636Z,7.62
2018-07-28T19:48:44.215Z,7.25
2018-07-28T19:51:11.943Z,6.22
2018-07-28T19:53:39.511Z,6.75
2018-07-28T19:56:07.080Z,5.83
2018-07-28T19:58:34.823Z,5.72
2018-07-28T20:01:02.432Z,5.00
2018-07-28T20:03:30.150Z,5.83
2018-07-28T20:05:57.886Z,6.20
2018-07-28T20:08:25.440Z,6.53
2018-07-28T20:10:53.020Z,6.25
2018-07-28T20:13:21.871Z,5.42
2018-07-28T20:15:49.519Z,5.65
2018-07-28T20:18:17.212Z,5.37
2018-07-28T20:20:44.872Z,5.22
2018-07-28T20:23:12.376Z,4.92
2018-07-28T20:25:40.045Z,5.35
2018-07-28T20:28:07.723Z,4.83
2018-07-28T20:30:35.385Z,6.15
2018-07-28T20:33:03.027Z,5.58
2018-07-28T20:35:30.680Z,5.80
2018-07-28T20:37:58.291Z,6.25
2018-07-28T20:40:25.810Z,5.67
2018-07-28T20:42:53.344Z,5.25
2018-07-28T20:45:20.931Z,5.25
2018-07-28T20:47:48.556Z,5.08
2018-07-28T20:50:16.110Z,5.70
2018-07-28T20:52:43.751Z,5.65
2018-07-28T20:55:11.363Z,5.90
2018-07-28T20:57:38.938Z,5.70
2018-07-28T21:00:06.632Z,5.90
2018-07-28T21:02:34.212Z,5.20
2018-07-28T21:05:02.001Z,4.70
2018-07-28T21:07:29.705Z,5.92
2018-07-28T21:09:57.651Z,5.78
2018-07-28T21:12:25.416Z,5.60
2018-07-28T21:14:53.154Z,5.62
2018-07-28T21:17:20.860Z,5.53
2018-07-28T21:19:48.640Z,4.72
2018-07-28T21:22:16.343Z,6.30
2018-07-28T21:24:44.057Z,7.78
2018-07-28T21:27:11.849Z,9.60
2018-07-28T21:29:39.511Z,9.43
2018-07-28T21:32:07.200Z,9.35
2018-07-28T21:34:34.880Z,7.92
2018-07-28T21:37:02.446Z,7.33
2018-07-28T21:39:30.255Z,6.72
2018-07-28T21:41:57.871Z,6.22
2018-07-28T21:44:25.466Z,6.75
2018-07-28T21:46:53.063Z,6.58
2018-07-28T21:49:20.616Z,7.87
2018-07-28T21:51:48.648Z,7.90
2018-07-28T21:54:16.327Z,7.40
2018-07-28T21:56:43.907Z,6.72
2018-07-28T21:59:11.737Z,5.90
2018-07-28T22:01:42.410Z,5.83
2018-07-28T22:04:15.585Z,5.58
2018-07-28T22:06:43.311Z,6.37
2018-07-28T22:09:10.901Z,7.15
2018-07-28T22:11:39.129Z,6.70
2018-07-28T22:14:06.738Z,6.65
2018-07-28T22:16:34.357Z,6.08
2018-07-28T22:19:01.939Z,6.53
2018-07-28T22:21:29.608Z,7.15
2018-07-28T22:23:57.190Z,7.15
2018-07-28T22:26:24.679Z,6.17
2018-07-28T22:31:16.695Z,5.62
2018-07-28T22:33:44.258Z,7.00
2018-07-28T22:36:11.867Z,7.12
2018-07-28T22:38:39.485Z,8.33
2018-07-28T22:41:07.138Z,7.37
2018-07-28T22:43:34.759Z,6.40
2018-07-28T22:46:02.400Z,6.58
2018-07-28T22:48:30.080Z,6.53
2018-07-28T22:50:57.659Z,6.47
2018-07-28T22:53:25.252Z,6.25
2018-07-28T22:55:52.932Z,6.37
2018-07-28T22:58:20.588Z,6.85
2018-07-28T23:00:48.426Z,5.85
2018-07-28T23:03:16.004Z,6.47
2018-07-28T23:05:43.655Z,8.50
2018-07-28T23:08:11.255Z,8.45
2018-07-28T23:10:38.871Z,8.60
2018-07-28T23:13:06.517Z,8.10
2018-07-28T23:15:34.160Z,7.78
2018-07-28T23:18:02.577Z,6.45
2018-07-28T23:20:30.903Z,6.87
2018-07-28T23:22:58.485Z,7.80
2018-07-28T23:25:26.051Z,8.40
2018-07-28T23:27:53.857Z,11.08
2018-07-28T23:30:21.404Z,10.82
2018-07-28T23:32:49.042Z,9.23
2018-07-28T23:35:16.655Z,8.23
2018-07-28T23:37:44.239Z,7.70
2018-07-28T23:40:11.982Z,7.15
2018-07-28T23:42:39.554Z,8.10
2018-07-28T23:45:07.193Z,8.20
2018-07-28T23:47:34.815Z,8.40
2018-07-28T23:50:02.403Z,7.72
2018-07-28T23:52:30.163Z,8.03
2018-07-28T23:54:57.813Z,8.65
2018-07-28T23:57:25.391Z,8.53
2018-07-28T23:59:53.162Z,8.27
